createdAt,value
2023-02-11T00:00:23.291Z,49.05
2023-02-11T00:03:11.223Z,56.50
2023-02-11T00:06:04.598Z,53.70
2023-02-11T00:08:52.457Z,51.58
2023-02-11T00:11:40.564Z,51.35
2023-02-11T00:14:28.300Z,51.65
2023-02-11T00:17:16.268Z,52.20
2023-02-11T00:20:06.027Z,51.75
2023-02-11T00:22:58.239Z,52.20
2023-02-11T00:25:46.837Z,48.65
2023-02-11T00:28:34.809Z,46.58
2023-02-11T00:31:24.632Z,46.80
2023-02-11T00:34:12.875Z,47.67
2023-02-11T00:37:00.945Z,44.58
2023-02-11T00:39:51.046Z,41.15
2023-02-11T00:42:39.056Z,48.78
2023-02-11T00:45:26.742Z,48.33
2023-02-11T00:48:14.329Z,45.92
2023-02-11T00:51:02.206Z,54.03
2023-02-11T00:53:49.985Z,41.92
2023-02-11T00:56:38.951Z,45.83
2023-02-11T00:59:26.896Z,46.45
2023-02-11T01:02:14.419Z,47.92
2023-02-11T01:05:02.563Z,43.60
2023-02-11T01:07:50.509Z,45.88
2023-02-11T01:10:38.131Z,39.10
2023-02-11T01:13:28.720Z,43.10
2023-02-11T01:16:17.782Z,39.47
2023-02-11T01:19:05.685Z,49.17
2023-02-11T01:21:53.968Z,54.75
2023-02-11T01:24:41.413Z,41.67
2023-02-11T01:27:28.901Z,41.45
2023-02-11T01:30:17.976Z,38.45
2023-02-11T01:33:05.966Z,40.83
2023-02-11T01:35:53.974Z,43.40
2023-02-11T01:38:44.648Z,38.08
2023-02-11T01:41:36.204Z,41.55
2023-02-11T01:44:29.865Z,45.70
2023-02-11T01:47:23.306Z,56.20
2023-02-11T01:50:14.716Z,54.05
2023-02-11T01:53:19.068Z,55.50
2023-02-11T01:56:26.464Z,48.88
2023-02-11T01:59:25.584Z,53.67
2023-02-11T02:02:21.093Z,52.30
2023-02-11T02:05:23.467Z,54.00
2023-02-11T02:08:20.298Z,50.70
2023-02-11T02:11:08.552Z,52.00
2023-02-11T02:13:56.315Z,49.75
2023-02-11T02:16:44.420Z,56.88
2023-02-11T02:20:12.722Z,55.88
2023-02-11T02:23:35.499Z,57.47
2023-02-11T02:27:21.417Z,58.63
2023-02-11T02:31:02.292Z,55.00
2023-02-11T02:33:59.791Z,50.58
2023-02-11T02:36:57.255Z,54.00
2023-02-11T02:39:49.849Z,53.63
2023-02-11T02:42:39.138Z,54.33
2023-02-11T02:45:27.074Z,52.25
2023-02-11T02:48:28.120Z,56.50
2023-02-11T02:51:52.887Z,60.10
2023-02-11T02:55:18.487Z,59.40
2023-02-11T02:58:46.005Z,59.30
2023-02-11T03:01:51.671Z,58.17
2023-02-11T03:04:51.831Z,50.88
2023-02-11T03:07:49.756Z,56.47
2023-02-11T03:10:43.779Z,58.40
2023-02-11T03:13:36.880Z,60.97
2023-02-11T03:19:21.683Z,58.08
2023-02-11T03:22:18.254Z,59.90
2023-02-11T03:25:08.858Z,51.55
2023-02-11T03:28:09.209Z,53.85
2023-02-11T03:31:10.832Z,50.67
2023-02-11T03:34:08.753Z,55.47
2023-02-11T03:37:04.339Z,53.42
2023-02-11T03:39:56.204Z,57.03
2023-02-11T03:42:50.548Z,51.50
2023-02-11T03:45:39.556Z,54.35
2023-02-11T03:48:31.135Z,56.85
2023-02-11T03:51:21.896Z,61.30
2023-02-11T03:54:16.530Z,54.83
2023-02-11T03:57:05.722Z,54.35
2023-02-11T03:59:58.935Z,51.55
2023-02-11T04:05:36.007Z,51.50
2023-02-11T04:08:25.055Z,50.08
2023-02-11T04:11:16.180Z,53.90
2023-02-11T04:14:06.298Z,51.38
2023-02-11T04:16:58.783Z,50.83
2023-02-11T04:19:49.602Z,48.45
2023-02-11T04:22:40.921Z,51.58
2023-02-11T04:25:32.059Z,44.50
2023-02-11T04:28:23.336Z,50.92
2023-02-11T04:31:14.941Z,42.03
2023-02-11T04:34:04.524Z,41.78
2023-02-11T04:36:55.322Z,46.35
2023-02-11T04:39:45.111Z,45.78
2023-02-11T04:42:32.759Z,48.75
2023-02-11T04:45:20.362Z,43.35
2023-02-11T04:48:09.438Z,44.72
2023-02-11T04:50:59.705Z,47.67
2023-02-11T04:53:48.247Z,48.67
2023-02-11T04:56:37.934Z,45.42
2023-02-11T04:59:27.326Z,47.58
2023-02-11T05:02:18.412Z,49.85
2023-02-11T05:05:11.182Z,47.28
2023-02-11T05:08:02.612Z,37.92
2023-02-11T05:10:52.540Z,44.67
2023-02-11T05:13:45.867Z,49.90
2023-02-11T05:16:39.187Z,41.50
2023-02-11T05:22:22.424Z,51.05
2023-02-11T05:25:15.234Z,49.13
2023-02-11T05:28:08.762Z,49.70
2023-02-11T05:30:59.467Z,48.58
2023-02-11T05:33:48.433Z,45.25
2023-02-11T05:36:37.583Z,43.88
2023-02-11T05:39:26.366Z,41.33
2023-02-11T05:42:16.596Z,45.35
2023-02-11T05:45:06.110Z,39.28
2023-02-11T05:47:54.993Z,39.05
2023-02-11T05:50:44.570Z,38.42
2023-02-11T05:53:33.842Z,41.75
2023-02-11T05:56:27.234Z,37.67
2023-02-11T05:59:22.144Z,42.40
2023-02-11T06:02:13.207Z,40.65
2023-02-11T06:05:02.367Z,40.22
2023-02-11T06:07:52.208Z,32.92
2023-02-11T06:10:43.096Z,37.40
2023-02-11T06:13:31.817Z,36.78
2023-02-11T06:16:22.341Z,36.03
2023-02-11T06:19:14.130Z,38.17
2023-02-11T06:22:03.287Z,35.80
2023-02-11T06:25:01.355Z,36.53
2023-02-11T06:27:53.074Z,37.90
2023-02-11T06:30:42.178Z,32.63
2023-02-11T06:33:34.647Z,32.90
2023-02-11T06:36:26.595Z,34.15
2023-02-11T06:39:18.389Z,35.85
2023-02-11T06:42:10.340Z,31.65
2023-02-11T06:45:06.072Z,32.45
2023-02-11T06:47:57.082Z,31.50
2023-02-11T06:50:49.550Z,30.38
2023-02-11T06:53:42.878Z,42.67
2023-02-11T06:56:37.216Z,28.50
2023-02-11T06:59:28.158Z,32.83
2023-02-11T07:02:20.985Z,30.92
2023-02-11T07:08:05.562Z,30.02
2023-02-11T07:10:56.613Z,30.75
2023-02-11T07:13:48.899Z,31.50
2023-02-11T07:16:39.710Z,31.08
2023-02-11T07:19:28.811Z,28.25
2023-02-11T07:22:17.254Z,27.30
2023-02-11T07:25:07.709Z,30.85
2023-02-11T07:27:56.421Z,33.22
2023-02-11T07:30:45.205Z,36.03
2023-02-11T07:33:34.252Z,32.05
2023-02-11T07:36:24.250Z,37.58
2023-02-11T07:39:17.323Z,31.08
2023-02-11T07:45:00.113Z,32.25
2023-02-11T07:47:50.702Z,34.03
2023-02-11T07:50:41.158Z,34.92
2023-02-11T07:53:29.220Z,36.22
2023-02-11T07:56:21.217Z,32.92
2023-02-11T07:59:17.069Z,40.42
2023-02-11T08:02:06.912Z,32.38
2023-02-11T08:04:55.038Z,37.10
2023-02-11T08:07:43.342Z,38.33
2023-02-11T08:10:34.191Z,42.60
2023-02-11T08:13:23.060Z,41.30
2023-02-11T08:16:25.648Z,41.00
2023-02-11T08:19:16.232Z,37.33
2023-02-11T08:22:09.626Z,40.70
2023-02-11T08:25:00.757Z,43.47
2023-02-11T08:27:49.677Z,42.15
2023-02-11T08:30:38.642Z,34.97
2023-02-11T08:33:35.046Z,33.22
2023-02-11T08:36:29.135Z,37.22
2023-02-11T08:39:24.208Z,37.40
2023-02-11T08:42:12.414Z,41.92
2023-02-11T08:45:00.297Z,41.58
2023-02-11T08:47:48.331Z,35.80
2023-02-11T08:50:40.397Z,32.97
2023-02-11T08:53:28.367Z,29.33
2023-02-11T08:56:19.983Z,33.42
2023-02-11T08:59:13.967Z,38.22
2023-02-11T09:02:03.092Z,34.58
2023-02-11T09:04:51.800Z,33.13
2023-02-11T09:07:40.818Z,31.17
2023-02-11T09:10:28.937Z,35.88
2023-02-11T09:13:17.077Z,30.98
2023-02-11T09:16:06.927Z,31.00
2023-02-11T09:18:57.422Z,26.75
2023-02-11T09:21:45.467Z,33.67
2023-02-11T09:24:34.701Z,26.35
2023-02-11T09:27:22.306Z,28.08
2023-02-11T09:30:11.841Z,28.88
2023-02-11T09:33:00.047Z,30.05
2023-02-11T09:35:47.736Z,27.67
2023-02-11T09:38:36.970Z,50.63
2023-02-11T09:41:43.431Z,141.18
2023-02-11T09:44:36.009Z,35.15
2023-02-11T09:47:29.136Z,33.08
2023-02-11T09:53:15.696Z,36.78
2023-02-11T09:56:11.491Z,29.17
2023-02-11T09:59:01.016Z,31.92
2023-02-11T10:01:54.501Z,28.13
2023-02-11T10:05:07.013Z,29.80
2023-02-11T10:08:02.253Z,31.60
2023-02-11T10:10:54.890Z,30.35
2023-02-11T10:13:52.956Z,29.25
2023-02-11T10:16:58.694Z,29.95
2023-02-11T10:20:01.265Z,26.40
2023-02-11T10:22:51.846Z,25.05
2023-02-11T10:25:45.464Z,30.55
2023-02-11T10:28:35.265Z,27.52
2023-02-11T10:31:26.792Z,24.65
2023-02-11T10:34:16.922Z,27.13
2023-02-11T10:37:07.310Z,26.30
2023-02-11T10:39:55.366Z,29.30
2023-02-11T10:42:47.186Z,29.90
2023-02-11T10:45:39.726Z,24.55
2023-02-11T10:48:46.519Z,22.67
2023-02-11T10:51:37.619Z,21.45
2023-02-11T10:54:25.767Z,26.45
2023-02-11T10:57:20.900Z,28.42
2023-02-11T11:00:22.483Z,23.35
2023-02-11T11:03:20.368Z,22.88
2023-02-11T11:06:10.592Z,25.15
2023-02-11T11:09:01.215Z,24.48
2023-02-11T11:11:55.541Z,29.60
2023-02-11T11:14:54.844Z,24.63
2023-02-11T11:17:43.009Z,24.52
2023-02-11T11:20:35.424Z,28.50
2023-02-11T11:23:25.021Z,25.55
2023-02-11T11:26:16.187Z,26.55
2023-02-11T11:29:10.692Z,25.48
2023-02-11T11:32:01.345Z,25.23
2023-02-11T11:34:52.584Z,26.23
2023-02-11T11:37:41.106Z,23.98
2023-02-11T11:40:31.545Z,29.15
2023-02-11T11:43:23.194Z,24.52
2023-02-11T11:46:12.271Z,24.75
2023-02-11T11:49:20.612Z,26.83
2023-02-11T11:52:20.868Z,27.92
2023-02-11T11:55:17.368Z,26.42
2023-02-11T11:58:06.914Z,24.85
2023-02-11T12:01:07.904Z,31.55
2023-02-11T12:04:26.163Z,25.67
2023-02-11T12:07:26.269Z,26.27
2023-02-11T12:10:46.183Z,25.05
2023-02-11T12:13:48.825Z,34.15
2023-02-11T12:16:48.906Z,28.23
2023-02-11T12:20:03.888Z,25.58
2023-02-11T12:23:06.271Z,27.65
2023-02-11T12:26:02.216Z,26.25
2023-02-11T12:29:04.330Z,25.13
2023-02-11T12:32:12.216Z,27.42
2023-02-11T12:35:16.608Z,26.70
2023-02-11T12:38:22.957Z,27.90
2023-02-11T12:41:55.369Z,27.30
2023-02-11T12:44:55.799Z,28.65
2023-02-11T12:48:00.435Z,26.23
2023-02-11T12:50:57.272Z,24.95
2023-02-11T12:54:10.312Z,26.00
2023-02-11T12:57:04.192Z,27.85
2023-02-11T12:59:59.004Z,23.95
2023-02-11T13:02:55.689Z,23.25
2023-02-11T13:05:49.476Z,25.58
2023-02-11T13:08:42.473Z,27.52
2023-02-11T13:11:38.528Z,24.45
2023-02-11T13:14:30.650Z,29.50
2023-02-11T13:17:26.584Z,28.40
2023-02-11T13:20:34.050Z,22.48
2023-02-11T13:23:31.487Z,27.02
2023-02-11T13:26:25.187Z,31.88
2023-02-11T13:29:27.543Z,25.05
2023-02-11T13:32:16.988Z,26.90
2023-02-11T13:35:33.570Z,24.75
2023-02-11T13:38:23.489Z,25.45
2023-02-11T13:41:21.035Z,22.17
2023-02-11T13:44:26.657Z,22.48
2023-02-11T13:47:30.583Z,23.15
2023-02-11T13:50:25.385Z,26.70
2023-02-11T13:53:16.150Z,26.67
2023-02-11T13:56:11.388Z,22.83
2023-02-11T13:59:02.300Z,26.45
2023-02-11T14:02:39.202Z,24.70
2023-02-11T14:05:50.563Z,25.75
2023-02-11T14:09:00.442Z,26.20
2023-02-11T14:11:51.717Z,25.25
2023-02-11T14:15:04.817Z,21.48
2023-02-11T14:17:53.967Z,26.63
2023-02-11T14:20:45.393Z,23.13
2023-02-11T14:23:33.224Z,29.17
2023-02-11T14:26:37.519Z,27.95
2023-02-11T14:29:34.575Z,24.75
2023-02-11T14:32:38.715Z,24.77
2023-02-11T14:35:37.189Z,23.92
2023-02-11T14:38:34.365Z,23.23
2023-02-11T14:41:25.874Z,23.30
2023-02-11T14:47:08.622Z,20.92
2023-02-11T14:49:57.555Z,23.10
2023-02-11T14:52:45.912Z,24.98
2023-02-11T14:55:38.096Z,26.20
2023-02-11T14:58:27.814Z,23.30
2023-02-11T15:01:30.155Z,23.88
2023-02-11T15:04:27.130Z,27.02
2023-02-11T15:07:16.510Z,30.15
2023-02-11T15:10:04.698Z,26.30
2023-02-11T15:12:53.551Z,29.48
2023-02-11T15:15:41.969Z,25.63
2023-02-11T15:18:37.599Z,24.05
2023-02-11T15:21:29.984Z,26.35
2023-02-11T15:24:27.083Z,24.83
2023-02-11T15:27:20.971Z,25.33
2023-02-11T15:30:28.138Z,25.95
2023-02-11T15:33:25.389Z,27.48
2023-02-11T15:36:16.603Z,28.40
2023-02-11T15:39:31.880Z,27.63
2023-02-11T15:42:25.666Z,23.80
2023-02-11T15:45:26.087Z,27.80
2023-02-11T15:48:17.636Z,28.38
2023-02-11T15:51:21.856Z,29.83
2023-02-11T15:54:18.587Z,23.73
2023-02-11T15:57:11.113Z,26.30
2023-02-11T16:00:04.409Z,27.58
2023-02-11T16:02:53.388Z,29.83
2023-02-11T16:05:41.316Z,27.45
2023-02-11T16:08:32.797Z,28.63
2023-02-11T16:11:31.161Z,26.77
2023-02-11T16:14:24.592Z,28.95
2023-02-11T16:17:22.917Z,28.33
2023-02-11T16:20:20.396Z,22.83
2023-02-11T16:23:09.065Z,29.98
2023-02-11T16:26:05.485Z,26.67
2023-02-11T16:28:54.254Z,23.25
2023-02-11T16:31:44.117Z,25.05
2023-02-11T16:34:32.410Z,27.00
2023-02-11T16:37:20.528Z,25.58
2023-02-11T16:40:11.974Z,27.85
2023-02-11T16:43:01.681Z,26.05
2023-02-11T16:45:50.573Z,26.42
2023-02-11T16:48:39.944Z,27.65
2023-02-11T16:51:28.029Z,24.52
2023-02-11T16:54:17.964Z,24.60
2023-02-11T16:57:15.006Z,25.58
2023-02-11T17:00:06.345Z,26.30
2023-02-11T17:02:54.051Z,27.30
2023-02-11T17:05:54.988Z,28.58
2023-02-11T17:08:46.509Z,32.08
2023-02-11T17:11:36.616Z,31.02
2023-02-11T17:14:26.441Z,28.15
2023-02-11T17:17:15.881Z,27.23
2023-02-11T17:20:04.062Z,30.38
2023-02-11T17:22:51.904Z,25.90
2023-02-11T17:25:40.743Z,26.23
2023-02-11T17:28:28.700Z,31.70
2023-02-11T17:31:17.128Z,29.30
2023-02-11T17:34:07.083Z,29.27
2023-02-11T17:36:58.229Z,27.45
2023-02-11T17:39:46.726Z,28.15
2023-02-11T17:42:35.186Z,28.65
2023-02-11T17:45:26.281Z,28.85
2023-02-11T17:48:14.548Z,31.15
2023-02-11T17:51:08.773Z,25.80
2023-02-11T17:53:58.364Z,27.92
2023-02-11T17:56:50.628Z,28.20
2023-02-11T17:59:39.552Z,27.90
2023-02-11T18:02:27.940Z,27.88
2023-02-11T18:05:16.197Z,32.05
2023-02-11T18:08:06.395Z,33.30
2023-02-11T18:10:54.450Z,29.42
2023-02-11T18:13:42.133Z,31.25
2023-02-11T18:16:30.796Z,29.92
2023-02-11T18:19:19.023Z,30.35
2023-02-11T18:22:07.070Z,28.02
2023-02-11T18:24:57.057Z,29.10
2023-02-11T18:27:46.330Z,26.58
2023-02-11T18:30:34.516Z,29.17
2023-02-11T18:33:22.838Z,31.98
2023-02-11T18:36:15.750Z,30.05
2023-02-11T18:39:06.883Z,29.33
2023-02-11T18:41:59.904Z,25.95
2023-02-11T18:47:36.125Z,28.20
2023-02-11T18:50:26.484Z,29.95
2023-02-11T18:53:17.150Z,29.20
2023-02-11T18:56:12.117Z,30.70
2023-02-11T18:59:02.470Z,31.52
2023-02-11T19:01:51.119Z,31.90
2023-02-11T19:04:39.247Z,27.48
2023-02-11T19:07:28.537Z,33.90
2023-02-11T19:10:18.542Z,30.08
2023-02-11T19:13:06.148Z,26.98
2023-02-11T19:15:57.838Z,31.67
2023-02-11T19:18:45.848Z,29.52
2023-02-11T19:21:36.506Z,33.35
2023-02-11T19:24:28.167Z,31.88
2023-02-11T19:27:15.890Z,32.35
2023-02-11T19:30:06.470Z,28.42
2023-02-11T19:32:57.200Z,32.03
2023-02-11T19:35:45.501Z,30.20
2023-02-11T19:38:35.604Z,28.70
2023-02-11T19:41:25.686Z,29.45
2023-02-11T19:44:17.202Z,28.25
2023-02-11T19:47:08.035Z,29.00
2023-02-11T19:50:01.157Z,30.50
2023-02-11T19:52:51.157Z,29.45
2023-02-11T19:55:41.260Z,30.33
2023-02-11T19:58:31.535Z,31.40
2023-02-11T20:01:23.171Z,31.13
2023-02-11T20:04:13.298Z,30.08
2023-02-11T20:07:06.786Z,31.55
2023-02-11T20:09:59.977Z,30.50
2023-02-11T20:12:49.834Z,29.05
2023-02-11T20:15:39.504Z,31.30
2023-02-11T20:18:29.153Z,29.73
2023-02-11T20:21:21.082Z,28.02
2023-02-11T20:24:12.665Z,30.50
2023-02-11T20:27:02.992Z,28.63
2023-02-11T20:29:52.914Z,25.52
2023-02-11T20:32:43.237Z,29.92
2023-02-11T20:35:32.882Z,28.85
2023-02-11T20:38:22.899Z,30.33
2023-02-11T20:41:17.430Z,26.13
2023-02-11T20:44:11.113Z,28.33
2023-02-11T20:47:05.311Z,28.60
2023-02-11T20:49:56.332Z,24.67
2023-02-11T20:52:45.892Z,26.33
2023-02-11T20:55:40.228Z,28.50
2023-02-11T20:58:31.251Z,32.17
2023-02-11T21:01:24.338Z,26.60
2023-02-11T21:04:16.001Z,26.67
2023-02-11T21:07:06.711Z,25.40
2023-02-11T21:09:57.845Z,26.65
2023-02-11T21:12:50.035Z,27.98
2023-02-11T21:15:40.646Z,24.27
2023-02-11T21:18:30.012Z,26.10
2023-02-11T21:21:20.504Z,24.83
2023-02-11T21:24:14.336Z,29.45
2023-02-11T21:27:04.116Z,29.90
2023-02-11T21:29:54.732Z,27.77
2023-02-11T21:32:48.757Z,28.95
2023-02-11T21:35:39.478Z,25.55
2023-02-11T21:38:28.819Z,27.42
2023-02-11T21:41:18.127Z,31.50
2023-02-11T21:44:07.000Z,30.90
2023-02-11T21:46:55.946Z,30.38
2023-02-11T21:49:46.753Z,32.75
2023-02-11T21:52:36.030Z,34.00
2023-02-11T21:55:25.080Z,31.35
2023-02-11T21:58:15.161Z,32.70
2023-02-11T22:01:10.770Z,31.08
2023-02-11T22:03:59.787Z,33.28
2023-02-11T22:06:50.034Z,30.42
2023-02-11T22:09:45.905Z,33.38
2023-02-11T22:12:34.973Z,30.52
2023-02-11T22:15:23.919Z,29.52
2023-02-11T22:18:15.180Z,31.73
2023-02-11T22:21:06.158Z,30.67
2023-02-11T22:23:57.286Z,33.17
2023-02-11T22:26:46.273Z,32.60
2023-02-11T22:29:35.678Z,37.13
2023-02-11T22:32:26.586Z,31.95
2023-02-11T22:35:15.612Z,35.53
2023-02-11T22:38:04.488Z,30.00
2023-02-11T22:40:54.511Z,32.63
2023-02-11T22:43:45.225Z,30.42
2023-02-11T22:46:34.411Z,34.13
2023-02-11T22:49:25.114Z,30.83
2023-02-11T22:52:13.946Z,35.65
2023-02-11T22:55:03.013Z,26.52
2023-02-11T22:57:55.228Z,29.63
2023-02-11T23:00:45.078Z,36.00
2023-02-11T23:03:34.097Z,28.67
2023-02-11T23:06:23.066Z,31.35
2023-02-11T23:09:13.462Z,32.42
2023-02-11T23:12:02.352Z,27.05
2023-02-11T23:14:55.504Z,27.40
2023-02-11T23:17:49.074Z,30.65
2023-02-11T23:20:41.701Z,30.63
2023-02-11T23:23:30.664Z,25.60
2023-02-11T23:26:30.412Z,30.95
2023-02-11T23:29:19.236Z,36.72
2023-02-11T23:32:09.576Z,32.20
2023-02-11T23:34:59.300Z,26.90
2023-02-11T23:37:50.982Z,28.88
2023-02-11T23:40:41.170Z,28.58
2023-02-11T23:43:29.977Z,27.75
2023-02-11T23:46:22.024Z,27.02
2023-02-11T23:49:14.734Z,25.33
2023-02-11T23:52:03.619Z,27.23
2023-02-11T23:54:54.560Z,29.42
2023-02-11T23:57:45.407Z,27.23
